sensor_id;sensor_type;location;lat;lon;timestamp;P1;durP1;ratioP1;P2;durP2;ratioP2
1204;SDS011;592;48.764;9.174;2023-02-13T00:00:43;18.80;;;12.80;;
1204;SDS011;592;48.764;9.174;2023-02-13T00:03:09;19.20;;;12.60;;
1204;SDS011;592;48.764;9.174;2023-02-13T00:05:36;20.07;;;13.37;;
1204;SDS011;592;48.764;9.174;2023-02-13T00:08:03;20.00;;;12.67;;
1204;SDS011;592;48.764;9.174;2023-02-13T00:10:30;22.07;;;13.83;;
1204;SDS011;592;48.764;9.174;2023-02-13T00:12:58;22.80;;;13.53;;
1204;SDS011;592;48.764;9.174;2023-02-13T00:15:25;21.60;;;14.17;;
1204;SDS011;592;48.764;9.174;2023-02-13T00:17:51;20.03;;;12.90;;
1204;SDS011;592;48.764;9.174;2023-02-13T00:20:18;21.83;;;12.93;;
1204;SDS011;592;48.764;9.174;2023-02-13T00:22:45;19.97;;;13.20;;
1204;SDS011;592;48.764;9.174;2023-02-13T00:25:12;19.00;;;12.77;;
1204;SDS011;592;48.764;9.174;2023-02-13T00:27:38;19.80;;;12.00;;
1204;SDS011;592;48.764;9.174;2023-02-13T00:30:07;21.77;;;14.03;;
1204;SDS011;592;48.764;9.174;2023-02-13T00:32:34;20.40;;;12.90;;
1204;SDS011;592;48.764;9.174;2023-02-13T00:35:01;22.23;;;14.00;;
1204;SDS011;592;48.764;9.174;2023-02-13T00:37:28;23.20;;;15.37;;
1204;SDS011;592;48.764;9.174;2023-02-13T00:39:54;23.23;;;13.77;;
1204;SDS011;592;48.764;9.174;2023-02-13T00:42:21;22.00;;;13.37;;
1204;SDS011;592;48.764;9.174;2023-02-13T00:44:50;22.63;;;14.70;;
1204;SDS011;592;48.764;9.174;2023-02-13T00:47:18;26.63;;;14.63;;
1204;SDS011;592;48.764;9.174;2023-02-13T00:49:45;23.90;;;14.30;;
1204;SDS011;592;48.764;9.174;2023-02-13T00:52:12;24.43;;;14.00;;
1204;SDS011;592;48.764;9.174;2023-02-13T00:54:39;22.03;;;13.30;;
1204;SDS011;592;48.764;9.174;2023-02-13T00:57:05;22.50;;;14.03;;
1204;SDS011;592;48.764;9.174;2023-02-13T00:59:32;22.70;;;13.77;;
1204;SDS011;592;48.764;9.174;2023-02-13T01:01:59;22.07;;;13.60;;
1204;SDS011;592;48.764;9.174;2023-02-13T01:04:27;23.23;;;14.33;;
1204;SDS011;592;48.764;9.174;2023-02-13T01:06:53;21.50;;;13.53;;
1204;SDS011;592;48.764;9.174;2023-02-13T01:09:20;23.70;;;14.90;;
1204;SDS011;592;48.764;9.174;2023-02-13T01:11:47;22.93;;;13.70;;
1204;SDS011;592;48.764;9.174;2023-02-13T01:14:13;24.20;;;14.50;;
1204;SDS011;592;48.764;9.174;2023-02-13T01:16:40;26.03;;;15.73;;
1204;SDS011;592;48.764;9.174;2023-02-13T01:19:07;26.83;;;14.60;;
1204;SDS011;592;48.764;9.174;2023-02-13T01:21:35;25.97;;;15.23;;
1204;SDS011;592;48.764;9.174;2023-02-13T01:24:02;27.67;;;16.07;;
1204;SDS011;592;48.764;9.174;2023-02-13T01:26:30;26.23;;;14.90;;
1204;SDS011;592;48.764;9.174;2023-02-13T01:28:56;29.03;;;15.67;;
1204;SDS011;592;48.764;9.174;2023-02-13T01:31:23;29.60;;;16.40;;
1204;SDS011;592;48.764;9.174;2023-02-13T01:33:50;21.63;;;14.20;;
1204;SDS011;592;48.764;9.174;2023-02-13T01:36:17;26.47;;;15.30;;
1204;SDS011;592;48.764;9.174;2023-02-13T01:38:45;25.57;;;14.67;;
1204;SDS011;592;48.764;9.174;2023-02-13T01:41:12;22.33;;;13.80;;
1204;SDS011;592;48.764;9.174;2023-02-13T01:43:43;30.73;;;15.63;;
1204;SDS011;592;48.764;9.174;2023-02-13T01:46:12;25.17;;;14.70;;
1204;SDS011;592;48.764;9.174;2023-02-13T01:48:41;28.60;;;15.40;;
1204;SDS011;592;48.764;9.174;2023-02-13T01:51:09;28.80;;;15.77;;
1204;SDS011;592;48.764;9.174;2023-02-13T01:53:41;24.23;;;14.27;;
1204;SDS011;592;48.764;9.174;2023-02-13T01:56:14;26.60;;;15.83;;
1204;SDS011;592;48.764;9.174;2023-02-13T01:58:45;26.33;;;15.03;;
1204;SDS011;592;48.764;9.174;2023-02-13T02:01:16;26.00;;;14.93;;
1204;SDS011;592;48.764;9.174;2023-02-13T02:03:44;28.47;;;15.00;;
1204;SDS011;592;48.764;9.174;2023-02-13T02:06:15;29.47;;;15.00;;
1204;SDS011;592;48.764;9.174;2023-02-13T02:08:46;27.93;;;14.90;;
1204;SDS011;592;48.764;9.174;2023-02-13T02:11:16;29.53;;;15.70;;
1204;SDS011;592;48.764;9.174;2023-02-13T02:13:49;27.70;;;15.23;;
1204;SDS011;592;48.764;9.174;2023-02-13T02:16:17;32.80;;;16.90;;
1204;SDS011;592;48.764;9.174;2023-02-13T02:18:43;29.23;;;15.13;;
1204;SDS011;592;48.764;9.174;2023-02-13T02:21:27;28.77;;;15.60;;
1204;SDS011;592;48.764;9.174;2023-02-13T02:24:16;26.77;;;15.57;;
1204;SDS011;592;48.764;9.174;2023-02-13T02:27:06;26.00;;;14.60;;
1204;SDS011;592;48.764;9.174;2023-02-13T02:32:57;30.17;;;15.40;;
1204;SDS011;592;48.764;9.174;2023-02-13T02:35:36;26.03;;;14.60;;
1204;SDS011;592;48.764;9.174;2023-02-13T02:38:14;33.03;;;16.23;;
1204;SDS011;592;48.764;9.174;2023-02-13T02:40:53;30.13;;;17.03;;
1204;SDS011;592;48.764;9.174;2023-02-13T02:43:29;28.13;;;15.03;;
1204;SDS011;592;48.764;9.174;2023-02-13T02:46:07;28.47;;;15.43;;
1204;SDS011;592;48.764;9.174;2023-02-13T02:48:42;37.70;;;17.40;;
1204;SDS011;592;48.764;9.174;2023-02-13T02:51:32;32.93;;;17.37;;
1204;SDS011;592;48.764;9.174;2023-02-13T02:54:06;31.30;;;16.50;;
1204;SDS011;592;48.764;9.174;2023-02-13T02:56:52;33.30;;;18.43;;
1204;SDS011;592;48.764;9.174;2023-02-13T02:59:22;36.10;;;18.60;;
1204;SDS011;592;48.764;9.174;2023-02-13T03:02:09;33.80;;;18.40;;
1204;SDS011;592;48.764;9.174;2023-02-13T03:04:57;36.27;;;17.87;;
1204;SDS011;592;48.764;9.174;2023-02-13T03:07:43;33.13;;;17.90;;
1204;SDS011;592;48.764;9.174;2023-02-13T03:10:11;34.67;;;18.77;;
1204;SDS011;592;48.764;9.174;2023-02-13T03:13:06;31.13;;;18.43;;
1204;SDS011;592;48.764;9.174;2023-02-13T03:15:46;33.00;;;18.13;;
1204;SDS011;592;48.764;9.174;2023-02-13T03:18:38;35.10;;;17.77;;
1204;SDS011;592;48.764;9.174;2023-02-13T03:21:28;33.63;;;16.77;;
1204;SDS011;592;48.764;9.174;2023-02-13T03:24:22;28.23;;;16.00;;
1204;SDS011;592;48.764;9.174;2023-02-13T03:26:54;29.53;;;15.50;;
1204;SDS011;592;48.764;9.174;2023-02-13T03:29:29;36.60;;;16.50;;
1204;SDS011;592;48.764;9.174;2023-02-13T03:32:22;29.50;;;17.53;;
1204;SDS011;592;48.764;9.174;2023-02-13T03:34:56;31.87;;;16.23;;
1204;SDS011;592;48.764;9.174;2023-02-13T03:37:48;29.90;;;16.30;;
1204;SDS011;592;48.764;9.174;2023-02-13T03:40:21;32.30;;;16.97;;
1204;SDS011;592;48.764;9.174;2023-02-13T03:42:54;32.50;;;18.33;;
1204;SDS011;592;48.764;9.174;2023-02-13T03:45:29;30.00;;;17.03;;
1204;SDS011;592;48.764;9.174;2023-02-13T03:48:21;36.77;;;18.77;;
1204;SDS011;592;48.764;9.174;2023-02-13T03:51:09;33.10;;;16.70;;
1204;SDS011;592;48.764;9.174;2023-02-13T03:53:40;28.10;;;16.00;;
1204;SDS011;592;48.764;9.174;2023-02-13T03:56:09;32.27;;;16.73;;
1204;SDS011;592;48.764;9.174;2023-02-13T03:58:56;32.20;;;16.20;;
1204;SDS011;592;48.764;9.174;2023-02-13T04:01:42;29.73;;;16.00;;
1204;SDS011;592;48.764;9.174;2023-02-13T04:04:14;34.90;;;17.77;;
1204;SDS011;592;48.764;9.174;2023-02-13T04:06:47;33.80;;;17.70;;
1204;SDS011;592;48.764;9.174;2023-02-13T04:09:18;34.77;;;17.73;;
1204;SDS011;592;48.764;9.174;2023-02-13T04:11:47;35.07;;;17.87;;
1204;SDS011;592;48.764;9.174;2023-02-13T04:14:19;38.27;;;17.50;;
1204;SDS011;592;48.764;9.174;2023-02-13T04:16:51;30.20;;;16.10;;
1204;SDS011;592;48.764;9.174;2023-02-13T04:19:22;34.00;;;17.80;;
1204;SDS011;592;48.764;9.174;2023-02-13T04:21:54;30.37;;;16.83;;
1204;SDS011;592;48.764;9.174;2023-02-13T04:24:23;31.73;;;16.63;;
1204;SDS011;592;48.764;9.174;2023-02-13T04:26:50;28.23;;;16.03;;
1204;SDS011;592;48.764;9.174;2023-02-13T04:29:18;30.67;;;16.20;;
1204;SDS011;592;48.764;9.174;2023-02-13T04:31:46;31.17;;;17.50;;
1204;SDS011;592;48.764;9.174;2023-02-13T04:34:12;26.63;;;14.90;;
1204;SDS011;592;48.764;9.174;2023-02-13T04:36:39;27.80;;;15.80;;
1204;SDS011;592;48.764;9.174;2023-02-13T04:39:06;29.83;;;17.20;;
1204;SDS011;592;48.764;9.174;2023-02-13T04:41:34;28.00;;;15.37;;
1204;SDS011;592;48.764;9.174;2023-02-13T04:44:01;33.50;;;17.77;;
1204;SDS011;592;48.764;9.174;2023-02-13T04:46:28;36.17;;;17.30;;
1204;SDS011;592;48.764;9.174;2023-02-13T04:48:54;37.93;;;18.87;;
1204;SDS011;592;48.764;9.174;2023-02-13T04:51:21;33.97;;;17.57;;
1204;SDS011;592;48.764;9.174;2023-02-13T04:53:48;32.10;;;17.50;;
1204;SDS011;592;48.764;9.174;2023-02-13T04:56:14;32.57;;;18.50;;
1204;SDS011;592;48.764;9.174;2023-02-13T04:58:42;34.97;;;18.50;;
1204;SDS011;592;48.764;9.174;2023-02-13T05:01:12;34.13;;;17.67;;
1204;SDS011;592;48.764;9.174;2023-02-13T05:03:40;32.30;;;16.63;;
1204;SDS011;592;48.764;9.174;2023-02-13T05:06:07;31.47;;;16.50;;
1204;SDS011;592;48.764;9.174;2023-02-13T05:08:34;30.60;;;16.60;;
1204;SDS011;592;48.764;9.174;2023-02-13T05:11:00;31.93;;;17.50;;
1204;SDS011;592;48.764;9.174;2023-02-13T05:13:27;35.10;;;17.40;;
1204;SDS011;592;48.764;9.174;2023-02-13T05:15:55;30.77;;;17.33;;
1204;SDS011;592;48.764;9.174;2023-02-13T05:18:22;32.27;;;17.20;;
1204;SDS011;592;48.764;9.174;2023-02-13T05:20:49;29.63;;;16.13;;
1204;SDS011;592;48.764;9.174;2023-02-13T05:23:29;31.30;;;18.57;;
1204;SDS011;592;48.764;9.174;2023-02-13T05:25:56;35.10;;;18.20;;
1204;SDS011;592;48.764;9.174;2023-02-13T05:28:23;38.20;;;18.63;;
1204;SDS011;592;48.764;9.174;2023-02-13T05:31:10;37.30;;;18.67;;
1204;SDS011;592;48.764;9.174;2023-02-13T05:33:36;34.93;;;18.57;;
1204;SDS011;592;48.764;9.174;2023-02-13T05:36:03;33.73;;;17.50;;
1204;SDS011;592;48.764;9.174;2023-02-13T05:38:31;31.83;;;17.73;;
1204;SDS011;592;48.764;9.174;2023-02-13T05:40:58;33.77;;;18.70;;
1204;SDS011;592;48.764;9.174;2023-02-13T05:43:24;29.77;;;16.73;;
1204;SDS011;592;48.764;9.174;2023-02-13T05:45:51;34.80;;;18.40;;
1204;SDS011;592;48.764;9.174;2023-02-13T05:48:27;33.60;;;17.83;;
1204;SDS011;592;48.764;9.174;2023-02-13T05:50:54;30.37;;;16.67;;
1204;SDS011;592;48.764;9.174;2023-02-13T05:53:21;33.87;;;17.90;;
1204;SDS011;592;48.764;9.174;2023-02-13T05:55:48;36.23;;;17.60;;
1204;SDS011;592;48.764;9.174;2023-02-13T05:58:16;34.37;;;18.70;;
1204;SDS011;592;48.764;9.174;2023-02-13T06:00:43;33.47;;;17.93;;
1204;SDS011;592;48.764;9.174;2023-02-13T06:03:09;38.40;;;19.13;;
1204;SDS011;592;48.764;9.174;2023-02-13T06:05:37;35.53;;;19.47;;
1204;SDS011;592;48.764;9.174;2023-02-13T06:08:04;31.37;;;18.43;;
1204;SDS011;592;48.764;9.174;2023-02-13T06:10:31;34.43;;;18.60;;
1204;SDS011;592;48.764;9.174;2023-02-13T06:12:58;34.60;;;19.90;;
1204;SDS011;592;48.764;9.174;2023-02-13T06:15:24;35.60;;;18.90;;
1204;SDS011;592;48.764;9.174;2023-02-13T06:17:51;34.60;;;18.33;;
1204;SDS011;592;48.764;9.174;2023-02-13T06:20:18;32.83;;;17.93;;
1204;SDS011;592;48.764;9.174;2023-02-13T06:22:47;37.47;;;19.20;;
1204;SDS011;592;48.764;9.174;2023-02-13T06:25:14;36.13;;;18.10;;
1204;SDS011;592;48.764;9.174;2023-02-13T06:27:41;35.00;;;18.13;;
1204;SDS011;592;48.764;9.174;2023-02-13T06:30:08;34.27;;;17.50;;
1204;SDS011;592;48.764;9.174;2023-02-13T06:32:36;33.13;;;18.30;;
1204;SDS011;592;48.764;9.174;2023-02-13T06:35:03;30.43;;;16.87;;
1204;SDS011;592;48.764;9.174;2023-02-13T06:37:30;36.30;;;18.33;;
1204;SDS011;592;48.764;9.174;2023-02-13T06:39:58;34.60;;;20.43;;
1204;SDS011;592;48.764;9.174;2023-02-13T06:42:24;34.73;;;18.97;;
1204;SDS011;592;48.764;9.174;2023-02-13T06:44:51;38.20;;;19.43;;
1204;SDS011;592;48.764;9.174;2023-02-13T06:47:18;45.10;;;20.27;;
1204;SDS011;592;48.764;9.174;2023-02-13T06:49:45;34.60;;;18.67;;
1204;SDS011;592;48.764;9.174;2023-02-13T06:52:11;33.93;;;18.37;;
1204;SDS011;592;48.764;9.174;2023-02-13T06:54:38;36.80;;;18.70;;
1204;SDS011;592;48.764;9.174;2023-02-13T06:57:06;38.07;;;19.97;;
1204;SDS011;592;48.764;9.174;2023-02-13T06:59:33;36.87;;;20.23;;
1204;SDS011;592;48.764;9.174;2023-02-13T07:01:59;34.97;;;18.43;;
1204;SDS011;592;48.764;9.174;2023-02-13T07:04:26;36.13;;;20.27;;
1204;SDS011;592;48.764;9.174;2023-02-13T07:06:53;34.90;;;19.20;;
1204;SDS011;592;48.764;9.174;2023-02-13T07:09:21;33.00;;;18.70;;
1204;SDS011;592;48.764;9.174;2023-02-13T07:11:47;37.57;;;19.87;;
1204;SDS011;592;48.764;9.174;2023-02-13T07:14:16;35.90;;;20.30;;
1204;SDS011;592;48.764;9.174;2023-02-13T07:16:43;37.17;;;20.60;;
1204;SDS011;592;48.764;9.174;2023-02-13T07:19:09;32.23;;;18.63;;
1204;SDS011;592;48.764;9.174;2023-02-13T07:21:36;38.17;;;20.20;;
1204;SDS011;592;48.764;9.174;2023-02-13T07:24:03;34.57;;;19.77;;
1204;SDS011;592;48.764;9.174;2023-02-13T07:26:29;37.43;;;19.73;;
1204;SDS011;592;48.764;9.174;2023-02-13T07:28:56;35.50;;;19.47;;
1204;SDS011;592;48.764;9.174;2023-02-13T07:31:26;42.47;;;22.30;;
1204;SDS011;592;48.764;9.174;2023-02-13T07:33:54;34.73;;;19.80;;
1204;SDS011;592;48.764;9.174;2023-02-13T07:36:20;34.20;;;18.97;;
1204;SDS011;592;48.764;9.174;2023-02-13T07:38:47;34.63;;;18.83;;
1204;SDS011;592;48.764;9.174;2023-02-13T07:41:14;34.27;;;19.70;;
1204;SDS011;592;48.764;9.174;2023-02-13T07:43:40;30.77;;;17.80;;
1204;SDS011;592;48.764;9.174;2023-02-13T07:46:08;34.77;;;19.40;;
1204;SDS011;592;48.764;9.174;2023-02-13T07:48:36;44.43;;;21.57;;
1204;SDS011;592;48.764;9.174;2023-02-13T07:51:03;38.97;;;20.90;;
1204;SDS011;592;48.764;9.174;2023-02-13T07:53:30;36.83;;;20.93;;
1204;SDS011;592;48.764;9.174;2023-02-13T07:55:57;38.60;;;20.10;;
1204;SDS011;592;48.764;9.174;2023-02-13T07:58:24;42.73;;;23.70;;
1204;SDS011;592;48.764;9.174;2023-02-13T08:00:51;33.57;;;20.27;;
1204;SDS011;592;48.764;9.174;2023-02-13T08:03:17;34.83;;;19.60;;
1204;SDS011;592;48.764;9.174;2023-02-13T08:05:45;36.43;;;20.57;;
1204;SDS011;592;48.764;9.174;2023-02-13T08:08:13;39.60;;;22.90;;
1204;SDS011;592;48.764;9.174;2023-02-13T08:10:40;35.97;;;20.73;;
1204;SDS011;592;48.764;9.174;2023-02-13T08:13:24;39.53;;;21.30;;
1204;SDS011;592;48.764;9.174;2023-02-13T08:15:53;35.70;;;20.87;;
1204;SDS011;592;48.764;9.174;2023-02-13T08:18:21;36.33;;;21.93;;
1204;SDS011;592;48.764;9.174;2023-02-13T08:20:49;38.77;;;22.03;;
1204;SDS011;592;48.764;9.174;2023-02-13T08:23:15;35.63;;;21.30;;
1204;SDS011;592;48.764;9.174;2023-02-13T08:25:42;37.70;;;21.03;;
1204;SDS011;592;48.764;9.174;2023-02-13T08:28:09;37.13;;;21.60;;
1204;SDS011;592;48.764;9.174;2023-02-13T08:30:35;34.10;;;20.77;;
1204;SDS011;592;48.764;9.174;2023-02-13T08:33:02;39.50;;;21.57;;
1204;SDS011;592;48.764;9.174;2023-02-13T08:35:29;38.57;;;21.40;;
1204;SDS011;592;48.764;9.174;2023-02-13T08:37:57;33.87;;;21.33;;
1204;SDS011;592;48.764;9.174;2023-02-13T08:40:27;38.37;;;20.30;;
1204;SDS011;592;48.764;9.174;2023-02-13T08:42:57;35.73;;;20.33;;
1204;SDS011;592;48.764;9.174;2023-02-13T08:45:25;35.20;;;20.30;;
1204;SDS011;592;48.764;9.174;2023-02-13T08:47:54;27.80;;;19.03;;
1204;SDS011;592;48.764;9.174;2023-02-13T08:50:21;30.20;;;18.37;;
1204;SDS011;592;48.764;9.174;2023-02-13T08:52:51;34.47;;;20.10;;
1204;SDS011;592;48.764;9.174;2023-02-13T08:55:20;32.57;;;19.27;;
1204;SDS011;592;48.764;9.174;2023-02-13T08:57:46;26.50;;;17.07;;
1204;SDS011;592;48.764;9.174;2023-02-13T09:00:13;33.20;;;17.77;;
1204;SDS011;592;48.764;9.174;2023-02-13T09:02:40;28.50;;;17.20;;
1204;SDS011;592;48.764;9.174;2023-02-13T09:05:10;29.40;;;16.60;;
1204;SDS011;592;48.764;9.174;2023-02-13T09:07:42;25.60;;;17.10;;
1204;SDS011;592;48.764;9.174;2023-02-13T09:10:20;27.00;;;15.90;;
1204;SDS011;592;48.764;9.174;2023-02-13T09:12:50;25.47;;;16.30;;
1204;SDS011;592;48.764;9.174;2023-02-13T09:15:36;24.20;;;15.93;;
1204;SDS011;592;48.764;9.174;2023-02-13T09:18:04;29.30;;;17.03;;
1204;SDS011;592;48.764;9.174;2023-02-13T09:20:31;24.67;;;16.23;;
1204;SDS011;592;48.764;9.174;2023-02-13T09:22:58;26.90;;;16.50;;
1204;SDS011;592;48.764;9.174;2023-02-13T09:25:26;29.57;;;16.83;;
1204;SDS011;592;48.764;9.174;2023-02-13T09:27:54;25.73;;;16.13;;
1204;SDS011;592;48.764;9.174;2023-02-13T09:30:26;24.57;;;15.10;;
1204;SDS011;592;48.764;9.174;2023-02-13T09:32:53;24.20;;;16.33;;
1204;SDS011;592;48.764;9.174;2023-02-13T09:35:20;24.97;;;15.33;;
1204;SDS011;592;48.764;9.174;2023-02-13T09:37:48;23.30;;;15.00;;
1204;SDS011;592;48.764;9.174;2023-02-13T09:40:20;25.37;;;15.70;;
1204;SDS011;592;48.764;9.174;2023-02-13T09:42:52;23.50;;;16.20;;
1204;SDS011;592;48.764;9.174;2023-02-13T09:45:30;20.43;;;13.83;;
1204;SDS011;592;48.764;9.174;2023-02-13T09:47:57;23.13;;;15.00;;
1204;SDS011;592;48.764;9.174;2023-02-13T09:50:25;25.30;;;15.50;;
1204;SDS011;592;48.764;9.174;2023-02-13T09:52:54;29.60;;;16.10;;
1204;SDS011;592;48.764;9.174;2023-02-13T09:55:24;24.27;;;14.83;;
1204;SDS011;592;48.764;9.174;2023-02-13T09:57:57;27.37;;;14.80;;
1204;SDS011;592;48.764;9.174;2023-02-13T10:00:32;27.17;;;15.97;;
1204;SDS011;592;48.764;9.174;2023-02-13T10:03:16;28.00;;;16.07;;
1204;SDS011;592;48.764;9.174;2023-02-13T10:05:48;23.80;;;15.20;;
1204;SDS011;592;48.764;9.174;2023-02-13T10:42:10;21.13;;;12.40;;
1204;SDS011;592;48.764;9.174;2023-02-13T10:47:28;20.20;;;12.50;;
1204;SDS011;592;48.764;9.174;2023-02-13T10:50:09;20.93;;;13.23;;
1204;SDS011;592;48.764;9.174;2023-02-13T10:52:43;22.67;;;14.07;;
1204;SDS011;592;48.764;9.174;2023-02-13T10:55:27;20.43;;;13.40;;
1204;SDS011;592;48.764;9.174;2023-02-13T10:58:08;22.03;;;13.90;;
1204;SDS011;592;48.764;9.174;2023-02-13T11:00:45;22.37;;;14.30;;
1204;SDS011;592;48.764;9.174;2023-02-13T11:03:17;19.27;;;12.33;;
1204;SDS011;592;48.764;9.174;2023-02-13T11:05:53;19.50;;;13.53;;
1204;SDS011;592;48.764;9.174;2023-02-13T11:08:23;23.93;;;13.27;;
1204;SDS011;592;48.764;9.174;2023-02-13T11:16:56;16.90;;;12.00;;
1204;SDS011;592;48.764;9.174;2023-02-13T12:03:35;13.07;;;9.27;;
1204;SDS011;592;48.764;9.174;2023-02-13T12:06:05;13.00;;;9.10;;
1204;SDS011;592;48.764;9.174;2023-02-13T12:08:39;14.30;;;9.50;;
1204;SDS011;592;48.764;9.174;2023-02-13T12:11:17;14.17;;;9.67;;
1204;SDS011;592;48.764;9.174;2023-02-13T12:16:27;14.47;;;9.90;;
1204;SDS011;592;48.764;9.174;2023-02-13T12:21:58;15.23;;;10.57;;
1204;SDS011;592;48.764;9.174;2023-02-13T12:24:46;13.87;;;10.00;;
1204;SDS011;592;48.764;9.174;2023-02-13T12:27:27;18.50;;;10.43;;
1204;SDS011;592;48.764;9.174;2023-02-13T12:33:16;15.60;;;10.83;;
1204;SDS011;592;48.764;9.174;2023-02-13T12:35:57;16.73;;;10.53;;
1204;SDS011;592;48.764;9.174;2023-02-13T12:38:36;18.00;;;11.27;;
1204;SDS011;592;48.764;9.174;2023-02-13T12:41:14;16.50;;;12.10;;
1204;SDS011;592;48.764;9.174;2023-02-13T12:43:59;16.40;;;11.97;;
1204;SDS011;592;48.764;9.174;2023-02-13T12:46:42;18.23;;;12.00;;
1204;SDS011;592;48.764;9.174;2023-02-13T12:49:25;17.10;;;12.43;;
1204;SDS011;592;48.764;9.174;2023-02-13T12:52:17;17.87;;;12.10;;
1204;SDS011;592;48.764;9.174;2023-02-13T12:55:00;18.70;;;12.30;;
1204;SDS011;592;48.764;9.174;2023-02-13T12:57:44;16.63;;;12.27;;
1204;SDS011;592;48.764;9.174;2023-02-13T13:00:28;18.20;;;12.70;;
1204;SDS011;592;48.764;9.174;2023-02-13T13:03:22;18.07;;;12.80;;
1204;SDS011;592;48.764;9.174;2023-02-13T13:06:07;16.60;;;12.63;;
1204;SDS011;592;48.764;9.174;2023-02-13T13:08:49;18.37;;;11.73;;
1204;SDS011;592;48.764;9.174;2023-02-13T13:14:31;21.27;;;14.00;;
1204;SDS011;592;48.764;9.174;2023-02-13T13:17:08;21.50;;;13.40;;
1204;SDS011;592;48.764;9.174;2023-02-13T13:19:46;19.70;;;13.73;;
1204;SDS011;592;48.764;9.174;2023-02-13T13:22:28;18.60;;;12.50;;
1204;SDS011;592;48.764;9.174;2023-02-13T13:25:09;18.20;;;13.10;;
1204;SDS011;592;48.764;9.174;2023-02-13T13:27:43;19.03;;;13.60;;
1204;SDS011;592;48.764;9.174;2023-02-13T13:30:15;20.93;;;13.90;;
1204;SDS011;592;48.764;9.174;2023-02-13T13:32:46;20.17;;;13.47;;
1204;SDS011;592;48.764;9.174;2023-02-13T13:35:17;16.70;;;12.03;;
1204;SDS011;592;48.764;9.174;2023-02-13T13:37:55;18.90;;;12.27;;
1204;SDS011;592;48.764;9.174;2023-02-13T13:40:46;22.53;;;13.07;;
1204;SDS011;592;48.764;9.174;2023-02-13T13:43:20;17.90;;;12.30;;
1204;SDS011;592;48.764;9.174;2023-02-13T13:45:56;16.17;;;11.93;;
1204;SDS011;592;48.764;9.174;2023-02-13T13:48:39;17.37;;;12.57;;
1204;SDS011;592;48.764;9.174;2023-02-13T13:51:19;17.53;;;12.53;;
1204;SDS011;592;48.764;9.174;2023-02-13T13:57:05;15.50;;;10.90;;
1204;SDS011;592;48.764;9.174;2023-02-13T14:02:42;19.80;;;11.63;;
1204;SDS011;592;48.764;9.174;2023-02-13T14:05:22;17.60;;;12.30;;
1204;SDS011;592;48.764;9.174;2023-02-13T14:07:52;18.00;;;12.80;;
1204;SDS011;592;48.764;9.174;2023-02-13T14:13:31;18.53;;;13.10;;
1204;SDS011;592;48.764;9.174;2023-02-13T14:16:00;17.77;;;12.50;;
1204;SDS011;592;48.764;9.174;2023-02-13T14:18:27;22.87;;;13.40;;
1204;SDS011;592;48.764;9.174;2023-02-13T14:20:56;19.33;;;12.30;;
1204;SDS011;592;48.764;9.174;2023-02-13T14:23:37;18.27;;;12.03;;
1204;SDS011;592;48.764;9.174;2023-02-13T14:26:32;17.20;;;11.90;;
1204;SDS011;592;48.764;9.174;2023-02-13T14:32:26;16.10;;;11.33;;
1204;SDS011;592;48.764;9.174;2023-02-13T14:34:57;13.23;;;9.63;;
1204;SDS011;592;48.764;9.174;2023-02-13T14:37:28;15.63;;;10.60;;
1204;SDS011;592;48.764;9.174;2023-02-13T14:52:00;17.30;;;11.80;;
1204;SDS011;592;48.764;9.174;2023-02-13T14:54:37;12.80;;;9.33;;
1204;SDS011;592;48.764;9.174;2023-02-13T14:57:18;14.73;;;10.70;;
1204;SDS011;592;48.764;9.174;2023-02-13T14:59:48;14.10;;;9.80;;
1204;SDS011;592;48.764;9.174;2023-02-13T15:02:20;14.93;;;10.40;;
1204;SDS011;592;48.764;9.174;2023-02-13T15:04:49;16.83;;;10.30;;
1204;SDS011;592;48.764;9.174;2023-02-13T15:07:25;14.90;;;11.00;;
1204;SDS011;592;48.764;9.174;2023-02-13T15:09:54;15.30;;;10.73;;
1204;SDS011;592;48.764;9.174;2023-02-13T15:12:26;18.00;;;11.10;;
1204;SDS011;592;48.764;9.174;2023-02-13T15:14:54;14.70;;;10.13;;
1204;SDS011;592;48.764;9.174;2023-02-13T15:17:22;17.07;;;11.60;;
1204;SDS011;592;48.764;9.174;2023-02-13T15:19:53;14.73;;;10.80;;
1204;SDS011;592;48.764;9.174;2023-02-13T15:22:27;16.27;;;10.93;;
1204;SDS011;592;48.764;9.174;2023-02-13T15:24:57;16.17;;;10.13;;
1204;SDS011;592;48.764;9.174;2023-02-13T15:27:25;15.40;;;11.00;;
1204;SDS011;592;48.764;9.174;2023-02-13T15:29:57;17.10;;;11.60;;
1204;SDS011;592;48.764;9.174;2023-02-13T15:32:31;17.03;;;11.80;;
1204;SDS011;592;48.764;9.174;2023-02-13T15:35:00;17.10;;;12.10;;
1204;SDS011;592;48.764;9.174;2023-02-13T15:37:36;15.47;;;11.50;;
1204;SDS011;592;48.764;9.174;2023-02-13T15:40:12;19.37;;;12.23;;
1204;SDS011;592;48.764;9.174;2023-02-13T15:42:40;18.40;;;11.30;;
1204;SDS011;592;48.764;9.174;2023-02-13T15:45:11;18.00;;;11.43;;
1204;SDS011;592;48.764;9.174;2023-02-13T15:47:39;15.73;;;10.50;;
1204;SDS011;592;48.764;9.174;2023-02-13T15:50:13;17.53;;;10.63;;
1204;SDS011;592;48.764;9.174;2023-02-13T15:52:43;15.60;;;10.40;;
1204;SDS011;592;48.764;9.174;2023-02-13T15:55:16;16.60;;;10.80;;
1204;SDS011;592;48.764;9.174;2023-02-13T15:57:45;18.20;;;12.23;;
1204;SDS011;592;48.764;9.174;2023-02-13T16:00:14;13.60;;;10.27;;
1204;SDS011;592;48.764;9.174;2023-02-13T16:02:48;15.60;;;10.80;;
1204;SDS011;592;48.764;9.174;2023-02-13T16:05:15;15.43;;;10.73;;
1204;SDS011;592;48.764;9.174;2023-02-13T16:07:48;15.50;;;10.67;;
1204;SDS011;592;48.764;9.174;2023-02-13T16:10:17;16.83;;;11.47;;
1204;SDS011;592;48.764;9.174;2023-02-13T16:12:51;16.70;;;10.50;;
1204;SDS011;592;48.764;9.174;2023-02-13T16:15:18;17.90;;;10.63;;
1204;SDS011;592;48.764;9.174;2023-02-13T16:17:47;15.37;;;10.03;;
1204;SDS011;592;48.764;9.174;2023-02-13T16:20:17;15.17;;;11.30;;
1204;SDS011;592;48.764;9.174;2023-02-13T16:22:46;14.30;;;9.57;;
1204;SDS011;592;48.764;9.174;2023-02-13T16:25:20;14.73;;;10.70;;
1204;SDS011;592;48.764;9.174;2023-02-13T16:27:50;15.73;;;11.00;;
1204;SDS011;592;48.764;9.174;2023-02-13T16:30:28;15.33;;;10.63;;
1204;SDS011;592;48.764;9.174;2023-02-13T16:33:10;15.70;;;10.77;;
1204;SDS011;592;48.764;9.174;2023-02-13T16:35:46;17.30;;;11.10;;
1204;SDS011;592;48.764;9.174;2023-02-13T16:38:24;14.50;;;10.37;;
1204;SDS011;592;48.764;9.174;2023-02-13T16:40:54;15.77;;;10.57;;
1204;SDS011;592;48.764;9.174;2023-02-13T16:49:01;14.83;;;9.90;;
1204;SDS011;592;48.764;9.174;2023-02-13T16:51:53;18.00;;;12.07;;
1204;SDS011;592;48.764;9.174;2023-02-13T16:54:34;15.97;;;11.10;;
1204;SDS011;592;48.764;9.174;2023-02-13T16:57:03;16.97;;;11.00;;
1204;SDS011;592;48.764;9.174;2023-02-13T16:59:47;16.53;;;11.20;;
1204;SDS011;592;48.764;9.174;2023-02-13T17:02:21;19.70;;;13.60;;
1204;SDS011;592;48.764;9.174;2023-02-13T17:04:50;23.50;;;15.40;;
1204;SDS011;592;48.764;9.174;2023-02-13T17:07:20;18.20;;;13.33;;
1204;SDS011;592;48.764;9.174;2023-02-13T17:09:53;19.37;;;12.17;;
1204;SDS011;592;48.764;9.174;2023-02-13T17:12:22;17.50;;;11.30;;
1204;SDS011;592;48.764;9.174;2023-02-13T17:14:49;18.20;;;11.93;;
1204;SDS011;592;48.764;9.174;2023-02-13T17:17:17;19.20;;;13.10;;
1204;SDS011;592;48.764;9.174;2023-02-13T17:19:45;23.00;;;13.83;;
1204;SDS011;592;48.764;9.174;2023-02-13T17:22:16;18.93;;;12.13;;
1204;SDS011;592;48.764;9.174;2023-02-13T17:24:50;19.60;;;12.40;;
1204;SDS011;592;48.764;9.174;2023-02-13T17:27:18;18.73;;;13.07;;
1204;SDS011;592;48.764;9.174;2023-02-13T17:29:47;22.77;;;13.37;;
1204;SDS011;592;48.764;9.174;2023-02-13T17:32:15;19.30;;;12.57;;
1204;SDS011;592;48.764;9.174;2023-02-13T17:34:44;19.60;;;12.32;;
1204;SDS011;592;48.764;9.174;2023-02-13T17:37:13;19.10;;;12.50;;
1204;SDS011;592;48.764;9.174;2023-02-13T17:39:43;18.53;;;12.90;;
1204;SDS011;592;48.764;9.174;2023-02-13T17:42:11;20.67;;;13.50;;